Observations for SOUTHAMPTON WX CNTR, United Kingdom (EGHI)

EGHI 260450Z 00000KT 8000 MIFG NSC 12/12 Q1018  
EGHI 252120Z VRB03KT CAVOK 18/15 Q1019  
EGHI 252050Z 20005KT CAVOK 20/15 Q1019  
EGHI 252020Z VRB02KT CAVOK 19/15 Q1019  
EGHI 251950Z VRB01KT CAVOK 20/15 Q1019  
EGHI 251920Z 20004KT CAVOK 20/15 Q1018  
EGHI 251850Z VRB01KT CAVOK 21/15 Q1018  
EGHI 251820Z VRB03KT CAVOK 22/14 Q1018  
EGHI 251750Z 19007KT CAVOK 23/14 Q1018  
EGHI 251720Z 19008KT CAVOK 24/15 Q1018  
EGHI 251650Z 14004KT 100V180 CAVOK 26/17 Q1018  
EGHI 251620Z 14004KT 100V190 CAVOK 25/16 Q1018  
EGHI 251550Z 17006KT 130V200 CAVOK 26/17 Q1018  
EGHI 251520Z 17007KT 110V220 CAVOK 27/16 Q1018  
EGHI 251450Z 16006KT 110V210 CAVOK 28/16 Q1017  
EGHI 251420Z 15005KT 080V210 CAVOK 29/16 Q1017  
EGHI 251350Z 16005KT 120V220 CAVOK 28/16 Q1018  
EGHI 251320Z 15004KT 100V200 CAVOK 28/15 Q1018  
EGHI 251250Z 19007KT 160V230 CAVOK 28/16 Q1018  
EGHI 251220Z 20007KT 160V240 CAVOK 28/16 Q1018  
EGHI 251150Z 18005KT 140V240 CAVOK 28/15 Q1018  
EGHI 251120Z 16005KT 100V220 CAVOK 28/15 Q1017  
EGHI 251050Z 18004KT 110V230 CAVOK 27/15 Q1018  
EGHI 251020Z VRB03KT CAVOK 27/15 Q1018  
EGHI 250950Z VRB03KT CAVOK 26/15 Q1018  
EGHI 250920Z 12004KT 090V160 CAVOK 25/15 Q1018  
EGHI 250850Z 14005KT 100V180 CAVOK 24/15 Q1018  
EGHI 250820Z 14004KT 100V190 CAVOK 23/14 Q1017  
EGHI 250750Z 00000KT CAVOK 22/14 Q1017  
EGHI 250720Z VRB01KT CAVOK 20/14 Q1017  
EGHI 250650Z 00000KT CAVOK 19/16 Q1017  
EGHI 250620Z 00000KT CAVOK 16/14 Q1016  
EGHI 250550Z 28001KT CAVOK 15/13 Q1016